createdAt,value
2017-11-01T00:15:14.510Z,9.00
2017-11-01T00:15:18.796Z,8.90
2017-11-01T00:15:23.855Z,8.50
2017-11-01T00:15:28.150Z,7.90
2017-11-01T00:15:32.430Z,8.20
2017-11-01T00:15:37.470Z,8.25
2017-11-01T00:15:41.742Z,8.67
2017-11-01T00:15:46.785Z,8.27
2017-11-01T00:15:51.049Z,8.50
2017-11-01T00:15:56.116Z,8.80
2017-11-01T00:16:00.369Z,9.00
2017-11-01T00:16:05.392Z,9.35
2017-11-01T00:16:09.670Z,9.47
2017-11-01T00:16:28.784Z,10.20
2017-11-01T00:16:33.071Z,9.90
2017-11-01T00:16:37.341Z,10.45
2017-11-01T00:16:42.388Z,10.03
2017-11-01T00:16:46.668Z,9.63
2017-11-01T00:16:51.731Z,10.10
2017-11-01T00:16:55.993Z,9.97
2017-11-01T00:17:00.302Z,10.65
2017-11-01T00:17:04.583Z,11.17
2017-11-01T00:17:09.680Z,11.30
2017-11-01T00:17:13.948Z,10.60
2017-11-01T00:17:18.208Z,10.70
2017-11-01T00:17:23.252Z,10.70
2017-11-01T00:17:27.534Z,11.67
2017-11-01T00:17:31.824Z,11.65
2017-11-01T00:17:36.219Z,11.35
2017-11-01T00:17:40.702Z,11.60
2017-11-01T00:17:45.456Z,12.10
2017-11-01T00:17:49.916Z,11.27
2017-11-01T00:17:54.380Z,11.07
2017-11-01T00:17:58.867Z,10.90
2017-11-01T00:18:03.223Z,10.50
2017-11-01T00:18:07.661Z,10.20
2017-11-01T00:18:12.185Z,10.35
2017-11-01T00:18:16.773Z,10.77
2017-11-01T00:18:21.148Z,11.05
2017-11-01T00:18:26.361Z,11.53
2017-11-01T00:18:30.697Z,11.73
2017-11-01T00:18:34.976Z,13.35
2017-11-01T00:18:39.278Z,13.53
2017-11-01T00:18:43.540Z,13.10
2017-11-01T00:18:47.815Z,13.65
2017-11-01T00:18:52.864Z,15.13
2017-11-01T00:18:57.169Z,14.60
2017-11-01T00:19:01.480Z,14.70
2017-11-01T00:19:05.768Z,15.10
2017-11-01T00:19:10.101Z,14.90
2017-11-01T00:19:14.373Z,15.00
2017-11-01T00:19:18.692Z,14.85
2017-11-01T00:19:22.965Z,14.10
2017-11-01T00:19:27.228Z,13.45
2017-11-01T00:19:31.511Z,12.25
2017-11-01T00:19:35.768Z,11.00
2017-11-01T00:19:40.068Z,11.33
2017-11-01T00:19:44.326Z,11.65
2017-11-01T00:19:48.603Z,10.60
2017-11-01T00:19:52.877Z,10.00
2017-11-01T00:19:57.943Z,9.95
2017-11-01T00:20:02.231Z,9.63
2017-11-01T00:20:06.511Z,10.00
2017-11-01T00:20:10.786Z,10.50
2017-11-01T00:20:15.057Z,10.50
2017-11-01T00:20:20.102Z,10.40
2017-11-01T00:20:24.383Z,10.60
2017-11-01T00:20:28.664Z,10.93
2017-11-01T00:20:32.973Z,11.30
2017-11-01T00:20:37.575Z,10.80
2017-11-01T00:20:42.831Z,10.60
2017-11-01T00:20:48.105Z,11.00
2017-11-01T00:20:52.549Z,11.07
2017-11-01T00:20:56.984Z,10.97
2017-11-01T00:21:01.390Z,11.45
2017-11-01T00:21:05.680Z,10.70
2017-11-01T00:21:10.406Z,10.10
2017-11-01T00:21:14.810Z,10.20
2017-11-01T00:21:19.433Z,10.45
2017-11-01T00:21:23.867Z,11.00
2017-11-01T00:21:28.303Z,11.45
2017-11-01T00:21:33.352Z,11.23
2017-11-01T00:21:37.655Z,11.50
2017-11-01T00:21:41.926Z,12.30
2017-11-01T00:21:46.974Z,12.15
2017-11-01T00:21:51.275Z,11.95
2017-11-01T00:21:55.544Z,11.80
2017-11-01T00:21:59.818Z,11.60
2017-11-01T00:22:04.077Z,11.50
2017-11-01T00:22:08.365Z,12.30
2017-11-01T00:22:12.653Z,11.90
2017-11-01T00:22:17.680Z,11.60
2017-11-01T00:22:21.954Z,11.33
2017-11-01T00:22:26.250Z,9.90
2017-11-01T00:22:31.285Z,9.90
2017-11-01T00:22:36.333Z,9.50
2017-11-01T00:22:40.599Z,8.53
2017-11-01T00:22:45.632Z,8.05
2017-11-01T00:22:49.901Z,7.80
2017-11-01T00:22:54.189Z,7.70
2017-11-01T00:22:58.446Z,7.90
2017-11-01T00:23:02.808Z,8.05
2017-11-01T00:23:07.125Z,7.70
2017-11-01T00:23:12.154Z,7.80
2017-11-01T00:23:16.431Z,7.90
2017-11-01T00:23:20.699Z,7.90
2017-11-01T00:23:24.962Z,8.27
2017-11-01T00:23:29.249Z,8.75
2017-11-01T00:23:34.296Z,9.25
2017-11-01T00:23:38.564Z,10.40
2017-11-01T00:23:43.602Z,10.50
2017-11-01T00:23:47.913Z,10.50
2017-11-01T00:23:52.187Z,11.20
2017-11-01T00:23:57.250Z,11.35
2017-11-01T00:24:01.543Z,11.20
2017-11-01T00:24:05.839Z,10.87
2017-11-01T00:24:10.123Z,11.25
2017-11-01T00:24:14.392Z,11.45
2017-11-01T00:24:19.454Z,11.87
2017-11-01T00:24:24.509Z,11.67
2017-11-01T00:24:28.795Z,11.37
2017-11-01T00:24:33.137Z,10.75
2017-11-01T00:24:37.443Z,10.30
2017-11-01T00:24:42.462Z,10.20
2017-11-01T00:24:46.795Z,10.80
2017-11-01T00:24:51.090Z,10.35
2017-11-01T00:24:55.371Z,10.35
2017-11-01T00:25:00.421Z,9.87
2017-11-01T00:25:04.746Z,10.13
2017-11-01T00:25:09.084Z,9.85
2017-11-01T00:25:13.331Z,9.27
2017-11-01T00:25:17.623Z,9.10
2017-11-01T00:25:22.005Z,9.35
2017-11-01T00:25:27.029Z,9.67
2017-11-01T00:25:31.314Z,10.47
2017-11-01T00:25:35.587Z,10.40
2017-11-01T00:25:39.847Z,10.20
2017-11-01T00:25:44.126Z,10.05
2017-11-01T00:25:49.162Z,10.57
2017-11-01T00:25:53.434Z,11.40
2017-11-01T00:25:58.472Z,11.50
2017-11-01T00:26:02.728Z,11.57
2017-11-01T00:26:07.018Z,12.00
2017-11-01T00:26:11.280Z,12.20
2017-11-01T00:26:15.557Z,12.30
2017-11-01T00:26:20.605Z,12.30
2017-11-01T00:26:24.882Z,12.33
2017-11-01T00:26:29.962Z,11.77
2017-11-01T00:26:34.241Z,11.60
2017-11-01T00:26:38.530Z,11.60
2017-11-01T00:26:42.800Z,11.45
2017-11-01T00:26:47.836Z,10.77
2017-11-01T00:26:52.115Z,10.40
2017-11-01T00:26:57.154Z,10.45
2017-11-01T00:27:01.439Z,10.50
2017-11-01T00:27:05.705Z,9.95
2017-11-01T00:27:10.031Z,9.90
2017-11-01T00:27:14.314Z,10.25
2017-11-01T00:27:18.572Z,10.60
2017-11-01T00:27:22.866Z,10.53
2017-11-01T00:27:27.139Z,10.85
2017-11-01T00:27:32.194Z,11.30
2017-11-01T00:27:36.479Z,11.27
2017-11-01T00:27:40.786Z,11.30
2017-11-01T00:27:45.051Z,11.10
2017-11-01T00:27:49.328Z,11.30
2017-11-01T00:27:53.604Z,11.83
2017-11-01T00:27:57.877Z,12.30
2017-11-01T00:28:02.149Z,12.65
2017-11-01T00:28:06.437Z,13.15
2017-11-01T00:28:10.723Z,13.20
2017-11-01T00:28:15.245Z,13.00
2017-11-01T00:28:19.510Z,13.13
2017-11-01T00:28:23.895Z,12.90
2017-11-01T00:28:28.177Z,12.70
2017-11-01T00:28:33.216Z,12.13
2017-11-01T00:28:37.833Z,12.17
2017-11-01T00:28:42.117Z,12.55
2017-11-01T00:28:46.520Z,13.07
2017-11-01T00:28:51.653Z,12.70
2017-11-01T00:28:56.052Z,11.87
2017-11-01T00:29:00.411Z,11.30
2017-11-01T00:29:04.676Z,11.20
2017-11-01T00:29:08.960Z,11.40
2017-11-01T00:29:13.234Z,11.20
2017-11-01T00:29:18.255Z,10.70
2017-11-01T00:29:23.305Z,11.20
2017-11-01T00:29:27.571Z,11.23
2017-11-01T00:29:32.597Z,11.50
2017-11-01T00:29:37.647Z,12.00
2017-11-01T00:29:41.917Z,12.00
2017-11-01T00:29:46.944Z,12.00
2017-11-01T00:29:51.221Z,12.03
2017-11-01T00:29:56.291Z,11.85
2017-11-01T00:30:00.588Z,12.10
2017-11-01T00:30:04.882Z,12.45
2017-11-01T00:30:09.161Z,12.47
2017-11-01T00:30:13.430Z,12.30
2017-11-01T00:30:17.729Z,12.15
2017-11-01T00:30:22.014Z,11.30
2017-11-01T00:30:26.278Z,11.10
2017-11-01T00:30:30.570Z,10.95
2017-11-01T00:30:34.840Z,10.40
2017-11-01T00:30:39.122Z,10.20
2017-11-01T00:30:43.388Z,9.85
2017-11-01T00:30:47.649Z,9.35
2017-11-01T00:30:51.947Z,9.20
2017-11-01T00:30:56.215Z,9.15
2017-11-01T00:31:00.489Z,8.95
2017-11-01T00:31:04.862Z,8.30
2017-11-01T00:31:09.917Z,8.10
2017-11-01T00:31:14.216Z,8.97
2017-11-01T00:31:19.335Z,9.70
2017-11-01T00:31:23.724Z,10.50
2017-11-01T00:31:28.100Z,10.80
2017-11-01T00:31:33.132Z,10.65
2017-11-01T00:31:38.164Z,11.20
2017-11-01T00:31:42.446Z,11.13
2017-11-01T00:31:47.490Z,11.53
2017-11-01T00:31:51.767Z,11.63
2017-11-01T00:31:56.555Z,11.80
2017-11-01T00:32:00.838Z,11.50
2017-11-01T00:32:05.106Z,11.25
2017-11-01T00:32:09.372Z,11.00
2017-11-01T00:32:14.420Z,10.17
2017-11-01T00:32:18.714Z,9.60
2017-11-01T00:32:23.745Z,9.30
2017-11-01T00:32:28.014Z,8.70
2017-11-01T00:32:33.095Z,8.75
2017-11-01T00:32:37.371Z,8.52
2017-11-01T00:32:41.684Z,8.70
2017-11-01T00:32:45.936Z,8.25
2017-11-01T00:32:50.982Z,8.20
2017-11-01T00:32:55.248Z,8.20
2017-11-01T00:32:59.520Z,8.70
2017-11-01T00:33:03.921Z,8.65
2017-11-01T00:33:08.194Z,8.75
2017-11-01T00:33:12.498Z,9.07
2017-11-01T00:33:16.850Z,9.40
2017-11-01T00:33:21.143Z,9.20
2017-11-01T00:33:26.313Z,9.03
2017-11-01T00:33:30.601Z,9.30
2017-11-01T00:33:35.628Z,8.95
2017-11-01T00:33:39.888Z,8.90
2017-11-01T00:33:44.172Z,9.00
2017-11-01T00:33:48.434Z,9.10
2017-11-01T00:33:52.700Z,9.40
2017-11-01T00:33:56.983Z,9.05
2017-11-01T00:34:01.263Z,9.50
2017-11-01T00:34:05.542Z,9.95
2017-11-01T00:34:09.804Z,9.80
2017-11-01T00:34:14.090Z,9.60
2017-11-01T00:34:18.399Z,9.20
2017-11-01T00:34:22.676Z,9.35
2017-11-01T00:34:26.962Z,9.50
2017-11-01T00:34:31.220Z,9.40
2017-11-01T00:34:36.239Z,9.60
2017-11-01T00:34:40.506Z,9.67
2017-11-01T00:34:44.780Z,9.90
2017-11-01T00:34:49.048Z,10.37
2017-11-01T00:34:54.092Z,10.10
2017-11-01T00:34:58.363Z,10.13
2017-11-01T00:35:02.654Z,9.60
2017-11-01T00:35:07.741Z,9.80
2017-11-01T00:35:12.153Z,10.00
2017-11-01T00:35:16.748Z,10.05
2017-11-01T00:35:22.064Z,10.13
2017-11-01T00:35:27.333Z,10.00
2017-11-01T00:35:31.584Z,10.60
2017-11-01T00:35:35.852Z,10.80
2017-11-01T00:35:40.108Z,10.35
2017-11-01T00:35:44.391Z,9.90
2017-11-01T00:35:48.678Z,9.27
2017-11-01T00:35:52.952Z,9.55
2017-11-01T00:35:57.216Z,9.55
2017-11-01T00:36:01.498Z,9.60
2017-11-01T00:36:05.749Z,9.70
2017-11-01T00:36:10.777Z,9.75
2017-11-01T00:36:15.054Z,9.70
2017-11-01T00:36:20.098Z,9.90
2017-11-01T00:36:24.367Z,10.23
2017-11-01T00:36:28.653Z,10.30
2017-11-01T00:36:32.935Z,10.30
2017-11-01T00:36:37.196Z,10.65
2017-11-01T00:36:42.228Z,11.00
2017-11-01T00:36:46.508Z,11.40
2017-11-01T00:36:51.551Z,11.55
2017-11-01T00:36:55.853Z,11.20
2017-11-01T00:37:00.113Z,11.20
2017-11-01T00:37:05.150Z,11.07
2017-11-01T00:37:09.472Z,10.90
2017-11-01T00:37:13.728Z,11.75
2017-11-01T00:37:17.993Z,11.80
2017-11-01T00:37:22.294Z,11.37
2017-11-01T00:37:26.564Z,11.15
2017-11-01T00:37:30.837Z,10.80
2017-11-01T00:37:36.007Z,10.80
2017-11-01T00:37:40.458Z,10.73
2017-11-01T00:37:45.608Z,10.50
2017-11-01T00:37:49.895Z,10.90
2017-11-01T00:37:54.955Z,11.60
2017-11-01T00:37:59.265Z,12.17
2017-11-01T00:38:03.544Z,13.25
2017-11-01T00:38:08.610Z,14.10
2017-11-01T00:38:12.875Z,13.60
2017-11-01T00:38:17.151Z,13.70
2017-11-01T00:38:21.433Z,14.05
2017-11-01T00:38:26.485Z,14.55
2017-11-01T00:38:30.770Z,14.13
2017-11-01T00:38:35.806Z,14.07
2017-11-01T00:38:40.132Z,14.50
2017-11-01T00:38:44.421Z,14.75
2017-11-01T00:38:48.706Z,15.00
2017-11-01T00:38:52.979Z,14.90
2017-11-01T00:38:58.008Z,14.40
2017-11-01T00:39:02.294Z,13.80
2017-11-01T00:39:07.339Z,12.55
2017-11-01T00:39:11.654Z,12.02
2017-11-01T00:39:15.925Z,11.90
2017-11-01T00:39:20.233Z,11.70
2017-11-01T00:39:25.256Z,11.55
2017-11-01T00:39:29.591Z,12.05
2017-11-01T00:39:33.877Z,11.85
2017-11-01T00:39:38.173Z,11.70
2017-11-01T00:39:42.454Z,11.20
2017-11-01T00:39:47.537Z,11.00
2017-11-01T00:39:58.409Z,10.37
2017-11-01T00:40:02.714Z,11.62
2017-11-01T00:40:07.771Z,11.60
2017-11-01T00:40:12.057Z,11.77
2017-11-01T00:40:17.110Z,12.40
2017-11-01T00:40:21.372Z,12.27
2017-11-01T00:40:25.659Z,11.90
2017-11-01T00:40:30.703Z,11.80
2017-11-01T00:40:34.973Z,11.73
2017-11-01T00:40:40.022Z,11.30
2017-11-01T00:40:44.304Z,10.87
2017-11-01T00:40:49.372Z,10.45
2017-11-01T00:40:53.655Z,10.27
2017-11-01T00:40:57.931Z,9.00
2017-11-01T00:41:02.972Z,9.03
2017-11-01T00:41:07.298Z,9.53
2017-11-01T00:41:11.580Z,9.50
2017-11-01T00:41:15.936Z,8.95
2017-11-01T00:41:20.263Z,8.80
2017-11-01T00:41:24.727Z,8.65
2017-11-01T00:41:29.080Z,8.57
2017-11-01T00:41:33.339Z,8.65
2017-11-01T00:41:37.610Z,8.90
2017-11-01T00:41:41.882Z,9.10
2017-11-01T00:41:46.167Z,9.30
2017-11-01T00:41:51.219Z,9.15
2017-11-01T00:41:55.514Z,10.23
2017-11-01T00:41:59.791Z,10.55
2017-11-01T00:42:04.056Z,9.73
2017-11-01T00:42:08.356Z,9.50
2017-11-01T00:42:12.686Z,9.80
2017-11-01T00:42:17.727Z,9.73
2017-11-01T00:42:22.010Z,9.83
2017-11-01T00:42:26.295Z,10.45
2017-11-01T00:42:30.553Z,10.55
2017-11-01T00:42:34.820Z,10.37
2017-11-01T00:42:39.093Z,10.20
2017-11-01T00:42:44.125Z,10.90
2017-11-01T00:42:48.414Z,10.87
2017-11-01T00:42:53.455Z,10.30
2017-11-01T00:42:57.754Z,10.03
2017-11-01T00:43:02.787Z,10.35
2017-11-01T00:43:07.110Z,11.73
2017-11-01T00:43:11.405Z,11.55
2017-11-01T00:43:15.831Z,11.27
2017-11-01T00:43:54.899Z,11.49
2017-11-01T00:43:59.164Z,11.65
2017-11-01T00:44:03.459Z,10.90
2017-11-01T00:44:07.716Z,9.70
2017-11-01T00:44:11.982Z,9.85
2017-11-01T00:44:17.006Z,9.90
2017-11-01T00:44:22.033Z,9.50
2017-11-01T00:44:26.336Z,10.00
2017-11-01T00:44:31.393Z,10.10
2017-11-01T00:44:35.672Z,10.20
2017-11-01T00:44:39.955Z,10.40
2017-11-01T00:44:44.279Z,10.47
2017-11-01T00:44:48.584Z,10.65
2017-11-01T00:44:52.840Z,10.40
2017-11-01T00:44:57.892Z,10.20
2017-11-01T00:45:02.192Z,11.50
2017-11-01T00:45:06.471Z,12.20
2017-11-01T00:45:11.497Z,12.80
2017-11-01T00:45:15.778Z,12.80
2017-11-01T00:45:20.100Z,13.60
2017-11-01T00:45:24.367Z,13.35
2017-11-01T00:45:28.661Z,13.60
2017-11-01T00:45:32.934Z,13.75
2017-11-01T00:45:37.208Z,13.97
2017-11-01T00:45:41.478Z,13.65
2017-11-01T00:45:45.767Z,13.65
2017-11-01T00:45:50.046Z,14.00
2017-11-01T00:45:54.332Z,15.65
2017-11-01T00:45:58.593Z,15.95
2017-11-01T00:46:03.635Z,14.60
2017-11-01T00:46:07.918Z,14.10
2017-11-01T00:46:12.980Z,14.40
2017-11-01T00:46:17.228Z,15.00
2017-11-01T00:46:22.300Z,15.30
2017-11-01T00:46:26.575Z,15.83
2017-11-01T00:46:30.848Z,15.70
2017-11-01T00:46:35.885Z,15.15
2017-11-01T00:46:40.158Z,15.33
2017-11-01T00:46:44.420Z,15.65
2017-11-01T00:46:48.715Z,15.23
2017-11-01T00:46:52.997Z,14.45
2017-11-01T00:46:57.272Z,13.30
2017-11-01T00:47:02.323Z,12.95
2017-11-01T00:47:06.633Z,12.82
2017-11-01T00:47:10.969Z,12.30
2017-11-01T00:47:15.285Z,12.45
2017-11-01T00:47:19.562Z,11.63
2017-11-01T00:47:23.824Z,10.90
2017-11-01T00:47:28.224Z,10.70
2017-11-01T00:47:32.497Z,11.03
2017-11-01T00:47:37.578Z,11.50
2017-11-01T00:47:41.892Z,11.20
2017-11-01T00:47:46.172Z,11.25
2017-11-01T00:47:50.448Z,11.10
2017-11-01T00:47:54.738Z,11.15
2017-11-01T00:47:59.007Z,11.70
2017-11-01T00:48:03.268Z,12.50
2017-11-01T00:48:07.569Z,12.67
2017-11-01T00:48:11.843Z,12.55
2017-11-01T00:48:16.127Z,11.80
2017-11-01T00:48:21.175Z,11.73
2017-11-01T00:48:25.454Z,11.73
2017-11-01T00:48:30.515Z,11.50
2017-11-01T00:48:34.798Z,11.57
2017-11-01T00:48:39.049Z,11.20
2017-11-01T00:49:50.911Z,10.70
2017-11-01T00:49:55.182Z,11.10
2017-11-01T00:49:59.479Z,11.90
2017-11-01T00:50:03.768Z,11.90
2017-11-01T00:50:08.821Z,11.40
2017-11-01T00:50:13.080Z,10.87
2017-11-01T00:50:18.117Z,10.35
2017-11-01T00:50:22.410Z,10.20
2017-11-01T00:50:26.701Z,10.30
2017-11-01T00:50:30.982Z,10.50
2017-11-01T00:50:35.259Z,10.65
2017-11-01T00:50:39.568Z,10.95
2017-11-01T00:50:43.881Z,10.53
2017-11-01T00:50:48.153Z,10.15
2017-11-01T00:50:52.534Z,10.95
2017-11-01T00:50:56.826Z,11.37
2017-11-01T00:51:01.128Z,11.20
2017-11-01T00:51:06.207Z,12.00
2017-11-01T00:51:10.555Z,12.23
2017-11-01T00:51:14.934Z,12.40
2017-11-01T00:51:19.373Z,12.20
2017-11-01T00:51:23.699Z,12.47
2017-11-01T00:51:27.985Z,13.25
2017-11-01T00:51:32.274Z,14.30
2017-11-01T00:51:36.558Z,14.27
2017-11-01T00:51:41.673Z,14.30
2017-11-01T00:51:46.743Z,14.30
2017-11-01T00:51:51.010Z,14.73
2017-11-01T00:51:55.726Z,13.45
2017-11-01T00:52:00.149Z,13.50
2017-11-01T00:52:04.432Z,13.13
2017-11-01T00:52:08.698Z,13.10
2017-11-01T00:52:13.759Z,13.05
2017-11-01T00:52:18.020Z,12.70
2017-11-01T00:52:23.061Z,12.40
2017-11-01T00:52:27.358Z,11.60
2017-11-01T00:52:31.624Z,10.70
2017-11-01T00:52:35.896Z,10.60
2017-11-01T00:52:40.190Z,10.37
2017-11-01T00:52:44.462Z,10.00
2017-11-01T00:52:48.729Z,9.85
2017-11-01T00:52:52.988Z,10.00
2017-11-01T00:52:57.266Z,9.70
2017-11-01T00:53:01.528Z,9.35
2017-11-01T00:53:05.797Z,9.35
2017-11-01T00:53:10.074Z,9.60
2017-11-01T00:53:14.391Z,10.20
2017-11-01T00:53:18.680Z,10.10
2017-11-01T00:53:22.969Z,10.97
2017-11-01T00:53:27.254Z,11.05
2017-11-01T00:53:32.284Z,10.80
2017-11-01T00:53:36.572Z,11.13
2017-11-01T00:53:41.637Z,11.30
2017-11-01T00:53:45.905Z,11.30
2017-11-01T00:53:50.198Z,10.85
2017-11-01T00:53:55.265Z,11.25
2017-11-01T00:53:59.524Z,11.40
2017-11-01T00:54:03.782Z,11.23
2017-11-01T00:54:08.063Z,11.25
2017-11-01T00:54:12.355Z,11.75
2017-11-01T00:54:16.617Z,12.00
2017-11-01T00:54:21.691Z,11.70
2017-11-01T00:54:25.949Z,11.63
2017-11-01T00:54:30.227Z,12.10
2017-11-01T00:54:34.507Z,11.75
2017-11-01T00:54:38.826Z,11.27
2017-11-01T00:54:43.899Z,12.05
2017-11-01T00:54:48.167Z,12.17
2017-11-01T00:54:53.204Z,12.00
2017-11-01T00:54:57.496Z,11.57
2017-11-01T00:55:01.780Z,12.03
2017-11-01T00:55:06.843Z,12.15
2017-11-01T00:55:11.098Z,11.47
2017-11-01T00:55:16.149Z,10.95
2017-11-01T00:55:21.230Z,11.77
2017-11-01T00:55:25.509Z,11.70
2017-11-01T00:55:29.801Z,13.05
2017-11-01T00:55:34.065Z,13.20
2017-11-01T00:55:38.351Z,13.40
2017-11-01T00:55:43.400Z,12.93
2017-11-01T00:55:47.689Z,12.50
2017-11-01T00:55:51.962Z,12.20
2017-11-01T00:55:56.244Z,12.65
2017-11-01T00:56:00.527Z,12.17
2017-11-01T00:56:04.799Z,12.40
2017-11-01T00:56:09.074Z,12.45
2017-11-01T00:56:13.340Z,13.03
2017-11-01T00:56:17.611Z,12.60
2017-11-01T00:56:21.901Z,12.65
2017-11-01T00:56:26.176Z,11.70
2017-11-01T00:56:30.456Z,11.35
2017-11-01T00:56:35.493Z,11.35
2017-11-01T00:56:39.790Z,11.73
2017-11-01T00:56:44.826Z,11.60
2017-11-01T00:56:49.105Z,12.95
2017-11-01T00:56:53.394Z,13.10
2017-11-01T00:56:57.673Z,13.25
2017-11-01T00:57:01.946Z,13.15
2017-11-01T00:57:06.217Z,12.97
2017-11-01T00:57:10.506Z,12.60
2017-11-01T00:57:15.551Z,12.35
2017-11-01T00:57:19.830Z,12.97
2017-11-01T00:57:24.887Z,13.73
2017-11-01T00:57:29.403Z,13.70
2017-11-01T00:57:35.899Z,13.43
2017-11-01T00:57:41.647Z,13.13
2017-11-01T00:57:47.339Z,13.25
2017-11-01T00:57:53.098Z,12.95
2017-11-01T00:57:58.022Z,12.60
2017-11-01T00:58:02.293Z,12.70
2017-11-01T00:58:06.576Z,12.60
2017-11-01T00:58:10.867Z,12.57
2017-11-01T00:58:15.167Z,12.75
2017-11-01T00:58:19.429Z,12.85
2017-11-01T00:58:24.474Z,12.00
2017-11-01T00:58:28.790Z,12.17
2017-11-01T00:58:33.079Z,12.25
2017-11-01T00:58:37.350Z,12.75
2017-11-01T00:58:42.393Z,12.60
2017-11-01T00:58:46.672Z,12.40
2017-11-01T00:58:51.738Z,11.70
2017-11-01T00:58:56.002Z,11.60
2017-11-01T00:59:00.289Z,12.20
2017-11-01T00:59:05.326Z,12.33
2017-11-01T00:59:09.625Z,12.63
2017-11-01T00:59:13.889Z,12.30
2017-11-01T00:59:18.222Z,12.00
2017-11-01T00:59:23.261Z,12.63
2017-11-01T00:59:27.556Z,12.93
2017-11-01T00:59:31.826Z,13.30
2017-11-01T00:59:36.117Z,12.80
2017-11-01T00:59:41.256Z,12.60
2017-11-01T00:59:46.294Z,12.67
2017-11-01T00:59:50.585Z,13.77
2017-11-01T00:59:55.615Z,14.15
2017-11-01T00:59:59.894Z,13.93
2017-11-01T01:00:04.981Z,13.55
2017-11-01T01:00:09.279Z,13.43
2017-11-01T01:00:13.554Z,13.60
2017-11-01T01:00:17.855Z,13.40
2017-11-01T01:00:22.134Z,12.40
2017-11-01T01:00:26.507Z,11.15
2017-11-01T01:00:30.825Z,10.50
2017-11-01T01:00:35.169Z,10.40
2017-11-01T01:00:39.450Z,10.35
2017-11-01T01:00:43.700Z,10.05
2017-11-01T01:00:48.002Z,9.50
2017-11-01T01:00:52.269Z,8.50
2017-11-01T01:00:56.547Z,8.20
2017-11-01T01:01:00.814Z,8.20
2017-11-01T01:01:05.080Z,8.17
2017-11-01T01:01:09.356Z,8.15
2017-11-01T01:01:13.643Z,7.95
2017-11-01T01:01:18.705Z,8.53
2017-11-01T01:01:22.994Z,8.77
2017-11-01T01:01:27.266Z,9.10
2017-11-01T01:01:31.547Z,9.50
2017-11-01T01:01:35.800Z,9.55
2017-11-01T01:01:40.087Z,10.10
2017-11-01T01:01:44.349Z,10.35
2017-11-01T01:01:49.398Z,11.85
2017-11-01T01:01:53.670Z,12.73
2017-11-01T01:01:57.964Z,13.67
2017-11-01T01:02:02.227Z,13.90
2017-11-01T01:02:06.492Z,14.45
2017-11-01T01:02:11.528Z,15.20
2017-11-01T02:21:50.438Z,12.78
2017-11-01T02:21:54.929Z,12.60
2017-11-01T02:21:59.261Z,12.37
2017-11-01T02:22:04.328Z,12.10
2017-11-01T02:22:08.615Z,12.43
2017-11-01T02:22:12.894Z,12.35
2017-11-01T02:22:17.217Z,12.93
2017-11-01T02:22:21.496Z,12.70
2017-11-01T02:22:25.772Z,12.70
2017-11-01T02:22:30.814Z,12.57
2017-11-01T02:22:35.108Z,12.63
2017-11-01T02:22:39.396Z,12.95
2017-11-01T02:22:44.446Z,13.55
2017-11-01T02:22:48.727Z,13.73
2017-11-01T02:22:53.762Z,14.03
2017-11-01T02:22:58.077Z,14.07
2017-11-01T02:23:02.352Z,14.55
2017-11-01T02:23:06.652Z,15.15
2017-11-01T02:23:11.713Z,14.93
2017-11-01T02:23:16.054Z,14.47
2017-11-01T02:23:21.117Z,14.40
2017-11-01T02:23:25.440Z,14.33
2017-11-01T02:23:29.753Z,14.70
2017-11-01T02:23:34.033Z,14.80
2017-11-01T02:23:38.355Z,14.70
2017-11-01T02:23:42.637Z,14.35
2017-11-01T02:23:46.971Z,14.23
2017-11-01T02:23:51.249Z,13.75
2017-11-01T02:23:55.517Z,13.55
2017-11-01T02:23:59.816Z,13.00
2017-11-01T02:24:04.878Z,12.50
2017-11-01T02:24:09.138Z,13.13
2017-11-01T02:24:13.432Z,14.05
2017-11-01T02:24:17.728Z,14.33
2017-11-01T02:24:22.006Z,14.20
2017-11-01T02:24:27.053Z,13.55
2017-11-01T02:24:31.334Z,13.13
2017-11-01T02:24:35.655Z,13.50
2017-11-01T02:24:39.947Z,14.50
2017-11-01T02:24:44.990Z,14.80
2017-11-01T02:24:49.289Z,14.53
2017-11-01T02:24:53.592Z,14.87
2017-11-01T02:24:57.869Z,15.75
2017-11-01T02:25:02.942Z,15.75
2017-11-01T02:25:07.235Z,14.33
2017-11-01T02:25:11.527Z,13.30
2017-11-01T02:25:15.867Z,12.55
2017-11-01T02:25:20.160Z,12.30
2017-11-01T02:25:24.464Z,12.40
2017-11-01T02:25:28.752Z,12.45
2017-11-01T02:25:33.043Z,12.60
2017-11-01T02:25:38.083Z,11.97
2017-11-01T02:25:42.382Z,11.37
2017-11-01T02:25:46.671Z,12.35
2017-11-01T02:25:50.946Z,12.50
2017-11-01T02:25:55.230Z,11.80
2017-11-01T02:25:59.515Z,11.80
2017-11-01T02:26:03.811Z,12.40
2017-11-01T02:26:08.862Z,12.27
2017-11-01T02:26:13.202Z,12.63
2017-11-01T02:26:17.538Z,14.00
2017-11-01T02:26:22.110Z,15.00
2017-11-01T02:26:26.590Z,14.93
2017-11-01T02:26:30.873Z,15.00
2017-11-01T02:26:35.175Z,14.50
2017-11-01T02:26:40.694Z,14.30
2017-11-01T02:26:45.002Z,14.00
2017-11-01T02:26:49.796Z,13.50
2017-11-01T02:26:55.222Z,13.67
2017-11-01T02:26:59.636Z,15.03
2017-11-01T02:27:03.930Z,14.57
2017-11-01T02:27:08.213Z,14.60
2017-11-01T02:27:13.268Z,14.35
2017-11-01T02:27:17.557Z,13.40
2017-11-01T02:27:21.847Z,12.60
2017-11-01T02:27:26.913Z,12.70
2017-11-01T02:27:31.198Z,12.97
2017-11-01T02:27:35.497Z,13.85
2017-11-01T02:27:39.804Z,14.27
2017-11-01T02:27:44.109Z,14.10
2017-11-01T02:27:48.374Z,14.05
2017-11-01T02:27:53.415Z,15.43
2017-11-01T02:27:57.771Z,13.90
2017-11-01T02:28:02.044Z,14.05
2017-11-01T02:28:06.321Z,14.10
2017-11-01T02:28:10.629Z,14.40
2017-11-01T02:28:14.909Z,14.70
2017-11-01T02:28:19.201Z,14.55
2017-11-01T02:28:23.491Z,15.10
2017-11-01T02:28:28.592Z,15.85
2017-11-01T02:28:32.885Z,15.20
2017-11-01T02:28:37.170Z,14.85
2017-11-01T02:28:41.494Z,15.20
2017-11-01T02:28:45.784Z,15.75
2017-11-01T02:28:50.085Z,15.35
2017-11-01T02:28:54.350Z,15.73
2017-11-01T02:28:58.634Z,16.15
2017-11-01T02:29:03.676Z,15.95
2017-11-01T02:29:07.980Z,16.20
2017-11-01T02:29:12.269Z,16.20
2017-11-01T02:29:16.542Z,16.00
2017-11-01T02:29:21.588Z,15.60
2017-11-01T02:29:25.863Z,14.83
2017-11-01T02:29:30.149Z,15.10
2017-11-01T02:29:35.423Z,14.95
2017-11-01T02:29:39.895Z,14.50
2017-11-01T02:29:45.321Z,14.20
2017-11-01T02:29:49.841Z,14.30
2017-11-01T02:29:55.272Z,13.77
2017-11-01T02:29:59.734Z,13.20
2017-11-01T02:30:04.027Z,13.83
2017-11-01T02:30:08.308Z,13.50
2017-11-01T02:30:12.609Z,14.75
2017-11-01T02:30:16.889Z,14.90
2017-11-01T02:30:21.186Z,15.00
2017-11-01T02:30:25.458Z,15.20
2017-11-01T02:30:30.515Z,15.00
2017-11-01T02:30:34.810Z,14.87
2017-11-01T02:30:39.097Z,14.83
2017-11-01T02:30:43.393Z,15.05
2017-11-01T02:30:48.429Z,14.45
2017-11-01T02:30:52.743Z,14.00
2017-11-01T02:30:57.033Z,13.57
2017-11-01T02:31:01.307Z,13.75
2017-11-01T02:31:06.360Z,13.05
2017-11-01T02:31:10.652Z,12.57
2017-11-01T02:31:14.943Z,11.90
2017-11-01T02:31:19.228Z,12.00
2017-11-01T02:31:23.521Z,12.00
2017-11-01T02:31:27.826Z,11.63
2017-11-01T02:31:32.186Z,11.80
2017-11-01T02:31:36.549Z,11.95
2017-11-01T02:31:41.172Z,12.20
2017-11-01T02:31:45.652Z,12.50
2017-11-01T02:31:51.006Z,12.67
2017-11-01T02:31:55.507Z,13.40
2017-11-01T02:32:00.159Z,13.60
2017-11-01T02:32:05.320Z,14.43
2017-11-01T02:32:10.417Z,15.27
2017-11-01T02:32:14.868Z,15.07
2017-11-01T02:32:19.245Z,15.30
2017-11-01T02:32:23.598Z,16.30
2017-11-01T02:32:28.848Z,16.30
2017-11-01T02:32:33.162Z,16.17
2017-11-01T02:32:37.465Z,16.10
2017-11-01T02:32:41.774Z,15.70
2017-11-01T02:32:46.857Z,15.15
2017-11-01T02:32:51.130Z,15.80
2017-11-01T02:32:56.185Z,15.60
2017-11-01T02:33:00.476Z,15.40
2017-11-01T02:33:04.769Z,15.30
2017-11-01T02:33:09.060Z,15.15
2017-11-01T02:33:13.373Z,15.20
2017-11-01T02:33:17.656Z,15.00
2017-11-01T02:33:21.959Z,14.05
2017-11-01T02:33:26.298Z,14.13
2017-11-01T02:33:30.600Z,14.15
2017-11-01T02:33:34.894Z,14.80
2017-11-01T02:33:39.161Z,14.90
2017-11-01T02:33:43.500Z,14.90
2017-11-01T03:15:06.298Z,15.18
2017-11-01T03:15:10.561Z,15.00
2017-11-01T03:15:14.850Z,15.30
2017-11-01T03:15:19.887Z,14.83
2017-11-01T03:15:24.177Z,15.00
2017-11-01T03:15:29.211Z,14.55
2017-11-01T03:15:33.628Z,14.43
2017-11-01T03:15:38.078Z,14.95
2017-11-01T03:15:42.474Z,14.50
2017-11-01T03:15:46.741Z,14.00
2017-11-01T03:15:51.240Z,14.63
2017-11-01T03:15:55.597Z,14.30
2017-11-01T03:16:00.673Z,13.90
2017-11-01T03:16:04.966Z,14.30
2017-11-01T03:16:09.385Z,14.65
2017-11-01T03:16:13.817Z,14.05